Time;durP1;ratioP1;P1;durP2;ratioP2;P2;SDS_P1;SDS_P2;PMS_P1;PMS_P2;Temp;Humidity;BMP_temperature;BMP_pressure;BME280_temperature;BME280_humidity;BME280_pressure;Samples;Min_cycle;Max_cycle;Signal;HPM_P1;HPM_P2
2023/05/05 00:02:44;;;;;;;1.92;1.20;;;;;;;17.92;56.04;96782.97;10388972;28;20576;-29
2023/05/05 00:07:44;;;;;;;1.43;1.33;;;;;;;17.90;56.00;96771.97;10377549;28;20048;-29
2023/05/05 00:12:45;;;;;;;1.23;1.13;;;;;;;17.90;56.08;96774.50;10373507;28;20030;-29
2023/05/05 00:17:45;;;;;;;4.07;2.30;;;;;;;18.06;62.32;96772.00;10369069;28;20617;-29
2023/05/05 00:22:45;;;;;;;1.70;1.60;;;;;;;18.16;61.69;96760.22;10368445;28;20512;-29
2023/05/05 00:27:46;;;;;;;1.37;1.27;;;;;;;18.10;58.84;96762.72;10384227;28;20390;-29
2023/05/05 00:32:47;;;;;;;1.30;1.20;;;;;;;17.98;56.47;96752.59;10371251;28;20497;-30
2023/05/05 00:37:48;;;;;;;0.80;0.80;;;;;;;17.95;56.43;96767.75;10366969;28;20831;-29
2023/05/05 00:42:49;;;;;;;1.40;1.30;;;;;;;17.92;56.56;96757.63;10380620;28;20470;-29
2023/05/05 00:47:53;;;;;;;1.35;1.10;;;;;;;17.92;56.63;96767.75;10376525;28;20041;-30
2023/05/05 00:52:56;;;;;;;1.35;1.05;;;;;;;17.89;56.37;96767.72;10390619;28;20038;-30
2023/05/05 00:57:57;;;;;;;1.20;1.10;;;;;;;17.89;56.45;96760.13;10374534;28;20058;-29
2023/05/05 01:02:58;;;;;;;1.27;1.10;;;;;;;17.89;56.37;96767.72;10384653;28;20037;-29
2023/05/05 01:08:22;;;;;;;1.33;1.23;;;;;;;17.90;56.48;96764.38;10375332;28;20112;-29
2023/05/05 01:13:53;;;;;;;1.65;1.50;;;;;;;18.09;61.49;96750.91;10373133;28;20026;-29
2023/05/05 01:19:00;;;;;;;1.92;1.42;;;;;;;18.14;60.87;96757.69;10379687;28;20033;-29
2023/05/05 01:24:37;;;;;;;2.22;0.90;;;;;;;18.04;58.81;96755.09;10375385;28;20030;-29
2023/05/05 01:30:28;;;;;;;1.05;0.95;;;;;;;17.96;56.78;96756.78;10367716;28;20037;-30
2023/05/05 01:35:34;;;;;;;1.13;1.02;;;;;;;17.92;56.41;96771.13;10292499;28;20419;-30
2023/05/05 01:40:46;;;;;;;1.00;1.00;;;;;;;17.90;56.44;96771.97;10363437;28;20128;-29
2023/05/05 01:45:47;;;;;;;1.10;1.00;;;;;;;17.87;56.33;96770.28;10373140;28;20069;-29
2023/05/05 01:50:51;;;;;;;1.20;1.10;;;;;;;17.87;56.30;96764.34;10381926;28;20038;-30
2023/05/05 01:55:53;;;;;;;1.48;0.95;;;;;;;17.88;56.18;96766.03;10367809;28;20038;-30
2023/05/05 02:00:56;;;;;;;1.08;0.90;;;;;;;17.87;56.05;96771.94;10374499;28;20405;-29
2023/05/05 02:05:59;;;;;;;1.40;1.30;;;;;;;18.02;61.57;96775.41;10385996;28;20037;-29
2023/05/05 02:11:00;;;;;;;1.55;1.40;;;;;;;18.12;61.57;96776.25;10373875;28;20128;-29
2023/05/05 02:16:03;;;;;;;1.15;1.00;;;;;;;18.07;58.54;96777.94;10388214;28;20026;-29
2023/05/05 02:21:04;;;;;;;0.75;0.75;;;;;;;17.97;57.08;96786.34;10384445;28;20405;-29
2023/05/05 02:26:08;;;;;;;1.10;1.00;;;;;;;17.93;56.51;96789.72;10391764;28;20501;-30
2023/05/05 02:31:10;;;;;;;1.17;0.82;;;;;;;17.90;56.44;96782.94;10397232;28;20125;-29
2023/05/05 02:36:16;;;;;;;1.08;1.00;;;;;;;17.88;56.44;96791.38;10383696;28;20017;-29
2023/05/05 02:41:26;;;;;;;1.00;1.00;;;;;;;17.87;56.02;96795.59;10371311;28;20037;-29
2023/05/05 02:46:27;;;;;;;0.82;0.82;;;;;;;17.86;56.08;96793.06;10384485;28;20034;-31
2023/05/05 02:51:28;;;;;;;1.55;1.23;;;;;;;17.86;56.31;96793.06;10383461;28;20505;-29
2023/05/05 02:56:41;;;;;;;0.80;0.80;;;;;;;17.88;57.28;96791.38;10370102;28;20403;-29
2023/05/05 03:01:55;;;;;;;1.50;1.40;;;;;;;18.08;61.29;96794.81;10394252;28;20065;-30
2023/05/05 03:07:11;;;;;;;1.48;1.27;;;;;;;18.13;59.89;96798.19;10385771;28;20111;-30
2023/05/05 03:12:21;;;;;;;1.30;1.20;;;;;;;18.04;59.20;96799.03;10375092;28;20025;-29
2023/05/05 03:17:45;;;;;;;1.05;0.95;;;;;;;17.95;57.05;96795.63;10394673;28;20037;-29
2023/05/05 03:22:47;;;;;;;1.05;0.98;;;;;;;17.91;56.85;96791.41;10382664;28;20068;-29
2023/05/05 03:27:48;;;;;;;1.23;1.13;;;;;;;17.89;56.50;96788.00;10370783;28;20030;-29
2023/05/05 03:32:52;;;;;;;0.80;0.80;;;;;;;17.87;56.43;96790.53;10401348;28;20045;-30
2023/05/05 03:37:54;;;;;;;1.02;0.93;;;;;;;17.86;56.34;96782.94;10392411;28;20053;-29
2023/05/05 03:42:55;;;;;;;1.08;0.88;;;;;;;17.86;55.80;96788.00;10368833;28;20036;-29
2023/05/05 03:47:55;;;;;;;1.00;0.90;;;;;;;17.85;56.43;96786.31;10376368;28;20406;-29
2023/05/05 03:52:56;;;;;;;1.38;1.20;;;;;;;17.91;58.07;96796.47;10372698;28;20289;-29
2023/05/05 03:57:56;;;;;;;1.20;1.10;;;;;;;18.06;61.73;96786.34;10371993;28;20032;-29
2023/05/05 04:02:57;;;;;;;1.83;1.60;;;;;;;18.12;60.64;96781.31;10384974;28;20041;-30
2023/05/05 04:07:58;;;;;;;2.63;0.80;;;;;;;18.05;58.38;96792.25;10381047;28;20041;-30
2023/05/05 04:13:01;;;;;;;1.05;0.90;;;;;;;17.96;56.67;96794.78;10376585;28;20394;-29
2023/05/05 04:18:04;;;;;;;2.10;1.10;;;;;;;17.91;56.47;96801.53;10367227;28;20022;-30
2023/05/05 04:23:04;;;;;;;1.00;0.90;;;;;;;17.89;56.29;96814.19;10376278;28;20041;-29
2023/05/05 04:28:05;;;;;;;1.17;0.90;;;;;;;17.88;56.51;96812.50;10377969;28;20038;-29
2023/05/05 04:33:06;;;;;;;0.80;0.80;;;;;;;17.88;56.42;96817.56;10379604;28;20109;-29
2023/05/05 04:38:07;;;;;;;3.50;1.35;;;;;;;17.88;56.89;96817.56;10394264;28;20037;-30
2023/05/05 04:43:07;;;;;;;3.28;1.00;;;;;;;17.87;57.59;96812.47;10367703;28;20401;-30
2023/05/05 04:48:08;;;;;;;4.13;2.03;;;;;;;17.88;59.65;96811.63;10369748;28;20397;-30
2023/05/05 04:53:09;;;;;;;10.40;1.85;;;;;;;18.02;59.98;96815.06;10366874;28;20108;-29
2023/05/05 04:58:10;;;;;;;4.57;1.80;;;;;;;18.05;59.17;96826.06;10367759;28;20080;-30
2023/05/05 05:03:11;;;;;;;5.13;1.70;;;;;;;17.97;58.97;96839.53;10372335;28;20281;-29
2023/05/05 05:08:11;;;;;;;6.13;1.50;;;;;;;17.96;58.29;96840.38;10380666;28;20085;-29
2023/05/05 05:13:13;;;;;;;5.28;1.52;;;;;;;17.91;57.32;96844.59;10365670;28;20030;-29
2023/05/05 05:18:13;;;;;;;3.73;1.20;;;;;;;17.92;57.06;96848.81;10375330;28;20034;-31
2023/05/05 05:23:14;;;;;;;5.43;1.50;;;;;;;17.89;56.91;96858.91;10383904;28;20040;-29
2023/05/05 05:28:17;;;;;;;10.00;1.73;;;;;;;17.88;56.71;96862.28;10367692;28;20079;-30
2023/05/05 05:33:23;;;;;;;2.47;1.20;;;;;;;17.87;57.02;96863.13;10391622;28;20241;-29
2023/05/05 05:38:25;;;;;;;7.50;2.47;;;;;;;17.82;57.33;96859.75;10395536;28;20076;-30
2023/05/05 05:43:28;;;;;;;15.18;2.53;;;;;;;17.90;60.39;96850.50;10385439;28;20033;-29
2023/05/05 05:48:29;;;;;;;3.50;1.67;;;;;;;18.07;60.00;96844.63;10393636;28;20268;-29
2023/05/05 05:53:31;;;;;;;5.30;2.10;;;;;;;18.11;60.05;96845.50;10381076;28;20036;-29
2023/05/05 05:58:32;;;;;;;6.18;1.80;;;;;;;18.05;59.48;96840.41;10380970;28;20033;-29
2023/05/05 06:03:35;;;;;;;2.70;1.42;;;;;;;17.96;58.85;96836.16;10377491;28;20481;-29
2023/05/05 06:08:35;;;;;;;8.20;1.95;;;;;;;17.91;57.68;96853.00;10386381;28;20034;-29
2023/05/05 06:13:35;;;;;;;7.77;1.50;;;;;;;17.89;57.05;96849.63;10380140;28;20041;-28
2023/05/05 06:18:37;;;;;;;8.88;2.25;;;;;;;17.91;58.19;96859.78;10382123;28;20288;-29
2023/05/05 06:23:38;;;;;;;10.65;2.38;;;;;;;17.89;57.32;96861.44;10381239;28;20037;-29
2023/05/05 06:28:40;;;;;;;9.48;2.10;;;;;;;17.87;57.12;96850.47;10371724;28;20073;-31
2023/05/05 06:33:41;;;;;;;6.35;1.63;;;;;;;17.86;56.92;96853.84;10373012;28;20038;-30
2023/05/05 06:38:41;;;;;;;10.32;3.05;;;;;;;17.88;57.46;96852.16;10400439;28;20022;-29
2023/05/05 06:43:43;;;;;;;4.10;1.90;;;;;;;18.07;59.82;96859.00;10378974;28;20038;-29
2023/05/05 06:48:46;;;;;;;7.75;2.45;;;;;;;18.17;61.23;96868.34;10370603;28;20038;-30
2023/05/05 06:53:46;;;;;;;4.15;1.30;;;;;;;18.10;58.50;96866.59;10395864;28;20041;-30
2023/05/05 06:58:46;;;;;;;3.43;1.43;;;;;;;17.98;59.09;96867.41;10381855;28;20032;-29
2023/05/05 07:03:47;;;;;;;3.60;1.53;;;;;;;17.93;58.17;96874.13;10387245;28;20041;-29
2023/05/05 07:08:47;;;;;;;7.00;3.30;;;;;;;17.91;58.51;96868.22;10386930;28;20688;-30
2023/05/05 07:13:48;;;;;;;10.30;1.57;;;;;;;17.89;57.80;96867.38;10389184;28;20117;-29
2023/05/05 07:18:48;;;;;;;7.18;2.22;;;;;;;17.87;57.21;96861.44;10403479;28;20296;-29
2023/05/05 07:23:48;;;;;;;9.70;1.70;;;;;;;17.85;58.19;96859.75;10374655;28;20060;-30
2023/05/05 07:28:50;;;;;;;10.00;1.90;;;;;;;17.92;59.88;96858.94;10378493;28;20270;-30
2023/05/05 07:33:51;;;;;;;14.75;2.22;;;;;;;17.89;57.63;96858.91;10384380;28;20125;-29
2023/05/05 07:38:53;;;;;;;15.40;3.20;;;;;;;18.03;58.85;96863.22;10382526;28;20033;-30
2023/05/05 07:43:54;;;;;;;6.82;2.47;;;;;;;18.18;59.64;96852.28;10379225;28;20042;-30
2023/05/05 07:48:54;;;;;;;9.67;1.63;;;;;;;18.18;57.73;96848.03;10385295;28;20057;-30
2023/05/05 07:53:55;;;;;;;14.23;2.75;;;;;;;18.04;58.31;96849.72;10377782;28;20459;-30
2023/05/05 07:58:55;;;;;;;13.73;2.20;;;;;;;17.93;57.82;96841.19;10369373;28;20057;-29
2023/05/05 08:03:55;;;;;;;12.57;2.90;;;;;;;17.93;57.50;96832.78;10377268;28;20041;-30
2023/05/05 08:08:58;;;;;;;13.10;3.13;;;;;;;17.94;58.49;96837.00;10374926;28;20042;-28
2023/05/05 08:14:01;;;;;;;11.90;2.35;;;;;;;17.90;57.29;96830.25;10368416;28;20462;-29
2023/05/05 08:19:01;;;;;;;7.07;2.13;;;;;;;17.85;56.66;96827.69;10385893;28;20037;-29
2023/05/05 08:24:02;;;;;;;16.17;2.77;;;;;;;17.84;56.39;96827.66;10373747;28;20390;-29
2023/05/05 08:29:02;;;;;;;6.30;2.13;;;;;;;17.81;56.25;96825.97;10375907;28;20479;-30
2023/05/05 08:34:05;;;;;;;9.33;2.37;;;;;;;17.87;59.11;96820.94;10376830;28;20390;-29
2023/05/05 08:39:06;;;;;;;5.90;1.95;;;;;;;18.08;62.44;96826.06;10374556;28;20033;-29
2023/05/05 08:44:07;;;;;;;6.67;1.40;;;;;;;18.15;58.94;96824.41;10367868;28;20049;-29
2023/05/05 08:49:14;;;;;;;4.75;1.27;;;;;;;18.04;58.75;96810.84;10383182;28;20743;-29
2023/05/05 08:54:18;;;;;;;6.78;1.58;;;;;;;17.96;58.89;96815.03;10374516;28;20029;-29
2023/05/05 08:59:23;;;;;;;8.20;2.00;;;;;;;17.92;57.33;96814.19;10374328;28;20030;-29
2023/05/05 09:04:25;;;;;;;3.97;1.65;;;;;;;17.89;56.74;96818.38;10385346;28;20036;-29
2023/05/05 09:09:26;;;;;;;5.43;1.67;;;;;;;17.86;56.44;96815.84;10390123;28;20025;-29
2023/05/05 09:14:26;;;;;;;5.22;2.38;;;;;;;17.87;56.37;96815.00;10375239;28;20034;-31
2023/05/05 09:19:26;;;;;;;6.00;1.13;;;;;;;17.84;56.13;96810.78;10383434;28;20068;-29
2023/05/05 09:24:27;;;;;;;3.87;1.10;;;;;;;17.82;55.99;96793.91;10383649;28;20182;-29
2023/05/05 09:29:28;;;;;;;1.83;1.03;;;;;;;17.82;56.18;96786.31;10383477;28;20038;-29
2023/05/05 09:34:28;;;;;;;5.03;1.35;;;;;;;18.02;57.82;96780.47;10386370;28;20421;-29
2023/05/05 09:39:28;;;;;;;1.93;1.20;;;;;;;18.15;59.59;96771.19;10383840;28;20038;-30
2023/05/05 09:44:36;;;;;;;4.95;1.30;;;;;;;18.11;57.75;96772.03;10382512;28;20104;-29
2023/05/05 09:49:37;;;;;;;3.03;1.30;;;;;;;18.00;58.10;96766.09;10381056;28;20041;-29
2023/05/05 09:54:37;;;;;;;3.90;1.55;;;;;;;17.93;57.23;96762.69;10404804;28;20072;-29
2023/05/05 09:59:38;;;;;;;2.67;1.37;;;;;;;17.90;56.77;96765.22;10390970;28;20095;-29
2023/05/05 10:04:38;;;;;;;2.17;1.00;;;;;;;17.88;56.48;96760.97;10383799;28;20288;-29
2023/05/05 10:09:39;;;;;;;1.38;1.13;;;;;;;17.88;57.48;96760.97;10380772;28;20037;-32
2023/05/05 10:14:39;;;;;;;1.83;1.03;;;;;;;17.85;56.89;96751.72;10376838;28;20037;-29
2023/05/05 10:19:41;;;;;;;2.80;1.20;;;;;;;17.85;56.61;96746.66;10391060;28;20105;-29
2023/05/05 10:25:01;;;;;;;2.67;1.20;;;;;;;17.88;56.26;96739.03;10392758;28;20045;-29
2023/05/05 10:30:05;;;;;;;2.97;1.30;;;;;;;17.98;60.03;96735.69;10373996;28;20049;-29
2023/05/05 10:35:11;;;;;;;4.00;1.60;;;;;;;18.16;62.02;96734.88;10372725;28;20030;-29
2023/05/05 10:40:20;;;;;;;3.60;1.50;;;;;;;18.20;59.92;96723.91;10387301;28;20464;-30
2023/05/05 10:45:20;;;;;;;3.67;1.35;;;;;;;18.04;56.62;96714.56;10371754;28;20532;-28
2023/05/05 10:50:23;;;;;;;2.97;1.40;;;;;;;18.05;56.54;96718.78;10374616;28;20045;-29
2023/05/05 10:55:40;;;;;;;4.90;1.52;;;;;;;18.06;56.59;96723.03;10386889;28;20048;-29
2023/05/05 11:00:41;;;;;;;1.98;1.45;;;;;;;18.04;56.38;96717.13;10371120;28;20033;-29
2023/05/05 11:06:03;;;;;;;2.95;1.60;;;;;;;18.04;56.39;96696.84;10378220;28;20029;-29
2023/05/05 11:11:04;;;;;;;10.50;2.05;;;;;;;18.07;57.42;96697.69;10386528;28;20437;-30
2023/05/05 11:16:46;;;;;;;7.55;2.25;;;;;;;18.11;56.48;96690.94;10373628;28;20037;-29
2023/05/05 11:22:00;;;;;;;8.85;1.90;;;;;;;18.10;57.09;96676.59;10375383;28;20040;-30
2023/05/05 11:27:02;;;;;;;16.30;3.63;;;;;;;18.09;58.19;96670.66;10386634;28;20107;-29
2023/05/05 11:32:13;;;;;;;13.30;2.90;;;;;;;18.27;61.14;96673.22;10383061;28;20079;-29
2023/05/05 11:37:15;;;;;;;9.75;3.03;;;;;;;18.33;60.19;96668.16;10369817;28;20057;-30
2023/05/05 11:42:24;;;;;;;15.25;5.60;;;;;;;18.20;56.76;96658.00;10385697;28;20057;-31
2023/05/05 11:47:26;;;;;;;13.38;4.10;;;;;;;18.10;56.72;96653.78;10394886;28;20039;-30
2023/05/05 11:52:27;;;;;;;11.40;4.00;;;;;;;18.05;56.64;96651.25;10378312;28;20045;-30
2023/05/05 11:57:28;;;;;;;6.50;3.60;;;;;;;18.03;56.66;96641.97;10392226;28;20504;-29
2023/05/05 12:02:30;;;;;;;9.88;3.33;;;;;;;18.04;56.83;96636.91;10375830;28;20042;-30
2023/05/05 12:07:32;;;;;;;7.00;3.17;;;;;;;18.05;57.06;96627.59;10369471;28;20522;-29
2023/05/05 12:12:34;;;;;;;8.10;3.65;;;;;;;18.02;56.47;96608.19;10382975;28;20091;-30
2023/05/05 12:17:39;;;;;;;7.00;2.88;;;;;;;18.02;56.45;96605.66;10385679;28;20045;-29
2023/05/05 12:22:40;;;;;;;17.20;3.10;;;;;;;18.01;56.60;96593.00;10369001;28;20624;-30
2023/05/05 12:27:50;;;;;;;8.30;2.92;;;;;;;18.20;59.36;96592.13;10376605;28;20181;-29
2023/05/05 12:33:02;;;;;;;14.30;3.72;;;;;;;18.35;60.78;96597.22;10367154;28;20053;-29
2023/05/05 12:38:03;;;;;;;8.80;3.45;;;;;;;18.28;60.04;96591.28;10372881;28;20382;-29
2023/05/05 12:43:03;;;;;;;15.13;2.97;;;;;;;18.15;57.69;96593.84;10401357;28;20029;-29
2023/05/05 12:48:21;;;;;;;11.10;3.00;;;;;;;18.06;58.72;96578.63;10371256;28;20030;-30
2023/05/05 12:53:22;;;;;;;5.13;2.45;;;;;;;18.04;57.94;96570.19;10398696;28;20404;-29
2023/05/05 12:58:23;;;;;;;7.85;2.55;;;;;;;18.03;58.15;96564.28;10375723;28;20394;-28
2023/05/05 13:03:24;;;;;;;7.15;2.45;;;;;;;18.04;58.50;96549.91;10386355;28;20038;-31
2023/05/05 13:08:43;;;;;;;8.07;2.37;;;;;;;18.03;58.29;96559.22;10375214;28;20038;-29
2023/05/05 13:13:43;;;;;;;4.57;2.05;;;;;;;18.08;58.23;96547.38;10371816;28;20026;-30
2023/05/05 13:18:48;;;;;;;6.70;1.90;;;;;;;18.18;59.04;96530.47;10389042;28;20034;-29
2023/05/05 13:23:48;;;;;;;3.80;1.75;;;;;;;18.25;59.07;96505.13;10378857;28;20699;-29
2023/05/05 13:28:49;;;;;;;5.50;2.22;;;;;;;18.40;62.27;96506.81;10379400;28;20037;-30
2023/05/05 13:33:49;;;;;;;5.90;2.05;;;;;;;18.49;60.27;96505.06;10375654;28;20426;-29
2023/05/05 13:38:50;;;;;;;8.63;1.95;;;;;;;18.54;60.33;96493.25;10375108;28;20040;-29
2023/05/05 13:43:50;;;;;;;4.57;1.90;;;;;;;18.62;60.56;96510.94;10386663;28;20033;-29
2023/05/05 13:48:53;;;;;;;6.80;2.00;;;;;;;18.65;60.66;96511.78;10381544;28;20494;-29
2023/05/05 13:53:53;;;;;;;7.03;2.45;;;;;;;18.70;61.91;96494.00;10383185;28;20044;-29
2023/05/05 13:58:53;;;;;;;4.93;2.60;;;;;;;18.76;61.63;96473.69;10386213;28;20045;-29
2023/05/05 14:03:54;;;;;;;7.57;2.53;;;;;;;18.80;61.84;96462.69;10385389;28;20516;-29
2023/05/05 14:08:55;;;;;;;9.95;2.42;;;;;;;18.88;61.67;96463.47;10381051;28;20301;-29
2023/05/05 14:13:55;;;;;;;4.97;1.88;;;;;;;18.89;61.57;96455.88;10389374;28;20502;-29
2023/05/05 14:18:55;;;;;;;6.10;2.57;;;;;;;18.86;63.00;96470.25;10384593;28;20425;-30
2023/05/05 14:23:56;;;;;;;12.60;2.80;;;;;;;18.83;63.09;96450.00;10378234;28;20033;-30
2023/05/05 14:28:56;;;;;;;8.60;3.00;;;;;;;18.84;62.96;96442.34;10385213;28;20385;-30
2023/05/05 14:33:56;;;;;;;6.40;2.70;;;;;;;18.94;63.15;96466.00;10381657;28;20296;-30
2023/05/05 14:38:57;;;;;;;10.30;3.57;;;;;;;18.98;62.72;96472.72;10389628;28;20057;-31
2023/05/05 14:43:58;;;;;;;5.63;2.77;;;;;;;19.06;62.33;96567.38;10388625;28;20039;-29
2023/05/05 14:48:58;;;;;;;11.65;3.13;;;;;;;19.06;62.50;96739.94;10385605;28;20534;-30
2023/05/05 14:53:58;;;;;;;8.93;3.23;;;;;;;19.09;62.04;96813.53;10388707;28;20044;-31
2023/05/05 14:58:59;;;;;;;9.93;3.33;;;;;;;19.15;62.36;96854.97;10372299;28;20269;-29
2023/05/05 15:03:59;;;;;;;9.07;3.27;;;;;;;19.14;62.08;96857.50;10386378;28;20103;-29
2023/05/05 15:09:00;;;;;;;7.25;2.55;;;;;;;19.17;61.38;96822.00;10372158;28;20363;-30
2023/05/05 15:14:00;;;;;;;7.95;3.08;;;;;;;19.19;61.45;96822.88;10391392;28;20049;-30
2023/05/05 15:19:00;;;;;;;11.55;4.10;;;;;;;19.00;64.59;96829.59;10397813;28;20120;-29
2023/05/05 15:24:01;;;;;;;11.47;3.93;;;;;;;18.91;64.79;96814.38;10427350;28;20119;-30
2023/05/05 15:29:01;;;;;;;9.13;2.63;;;;;;;18.85;62.85;96798.34;10426276;28;20041;-31
2023/05/05 15:34:02;;;;;;;7.75;2.53;;;;;;;18.75;62.57;96786.50;10398994;28;20071;-30
2023/05/05 15:39:03;;;;;;;6.57;2.33;;;;;;;18.68;61.53;96761.97;10419639;28;20607;-29
2023/05/05 15:44:03;;;;;;;6.07;2.25;;;;;;;18.67;61.17;96756.06;10404049;28;20045;-30
2023/05/05 15:49:04;;;;;;;4.57;2.20;;;;;;;18.64;60.76;96751.00;10392627;28;20033;-31
2023/05/05 15:54:04;;;;;;;9.57;3.08;;;;;;;18.64;62.85;96760.28;10396226;28;20026;-30
2023/05/05 15:59:07;;;;;;;5.63;2.65;;;;;;;18.66;62.95;96738.31;10403909;28;20017;-30
2023/05/05 16:04:07;;;;;;;3.42;1.95;;;;;;;18.66;61.48;96728.19;10389410;28;20118;-30
2023/05/05 16:09:08;;;;;;;4.30;2.00;;;;;;;18.65;61.22;96726.47;10382185;28;20153;-30
2023/05/05 16:14:08;;;;;;;5.78;2.47;;;;;;;18.64;61.20;96717.16;10400345;28;20291;-29
2023/05/05 16:19:11;;;;;;;6.03;2.63;;;;;;;18.66;65.61;96697.75;10415499;28;20025;-31
2023/05/05 16:24:15;;;;;;;7.45;3.38;;;;;;;18.69;65.88;96685.06;10390777;28;20034;-30
2023/05/05 16:29:15;;;;;;;6.65;2.58;;;;;;;18.63;60.89;96679.97;10390321;28;20094;-30
2023/05/05 16:34:16;;;;;;;4.27;2.03;;;;;;;18.58;60.55;96686.75;10414371;28;20383;-30
2023/05/05 16:39:16;;;;;;;6.38;1.60;;;;;;;18.54;60.26;96680.84;10396435;28;20030;-30
2023/05/05 16:44:16;;;;;;;4.37;1.97;;;;;;;18.51;60.07;96687.63;10386929;28;20091;-30
2023/05/05 16:49:17;;;;;;;3.00;2.20;;;;;;;18.48;59.65;96680.00;10386495;28;20433;-29
2023/05/05 16:54:17;;;;;;;3.45;1.85;;;;;;;18.48;59.64;96672.38;10388999;28;20326;-31
2023/05/05 16:59:18;;;;;;;3.22;2.03;;;;;;;18.44;59.42;96668.19;10407191;28;20104;-29
2023/05/05 17:04:18;;;;;;;3.03;1.75;;;;;;;18.41;59.26;96669.00;10392528;28;20033;-31
2023/05/05 17:09:23;;;;;;;4.13;1.60;;;;;;;18.40;59.33;96674.13;10379234;28;20030;-30
2023/05/05 17:14:23;;;;;;;4.30;2.67;;;;;;;18.46;60.84;96677.47;10386878;28;20071;-30
2023/05/05 17:19:24;;;;;;;6.10;2.70;;;;;;;18.56;65.64;96674.09;10375959;28;20036;-35
2023/05/05 17:24:25;;;;;;;4.63;3.13;;;;;;;18.58;63.05;96682.53;10393401;28;20039;-30
2023/05/05 17:29:25;;;;;;;4.70;1.50;;;;;;;18.44;59.23;96669.03;10382276;28;20029;-31
2023/05/05 17:34:25;;;;;;;2.33;1.70;;;;;;;18.39;58.93;96659.72;10397819;28;20549;-30
2023/05/05 17:39:26;;;;;;;2.97;1.60;;;;;;;18.36;59.07;96664.81;10415688;28;20029;-32
2023/05/05 17:44:26;;;;;;;4.00;1.90;;;;;;;18.33;58.84;96669.88;10393995;28;20041;-30
2023/05/05 17:49:26;;;;;;;2.47;1.77;;;;;;;18.33;58.71;96674.94;10400491;28;20822;-31
2023/05/05 17:54:27;;;;;;;2.40;1.53;;;;;;;18.32;58.58;96674.09;10401877;28;20168;-31
2023/05/05 17:59:27;;;;;;;3.60;1.37;;;;;;;18.30;58.37;96683.38;10392579;28;20395;-30
2023/05/05 18:04:27;;;;;;;3.27;1.77;;;;;;;18.29;58.32;96685.88;10391303;28;20306;-29
2023/05/05 18:09:28;;;;;;;3.70;1.60;;;;;;;18.27;58.24;96695.19;10400767;28;20064;-30
2023/05/05 18:14:28;;;;;;;3.40;2.43;;;;;;;18.44;65.68;96703.66;10406832;28;20036;-31
2023/05/05 18:19:29;;;;;;;4.97;2.37;;;;;;;18.53;64.18;96701.97;10401423;28;20039;-30
2023/05/05 18:24:30;;;;;;;2.50;1.63;;;;;;;18.49;61.49;96714.66;10400747;28;20037;-30
2023/05/05 18:29:31;;;;;;;2.17;1.67;;;;;;;18.35;58.79;96711.28;10400012;28;20048;-30
2023/05/05 18:34:31;;;;;;;1.17;1.00;;;;;;;18.31;58.50;96712.09;10385092;28;20478;-31
2023/05/05 18:39:32;;;;;;;1.60;0.98;;;;;;;18.29;58.19;96723.91;10391134;28;20293;-30
2023/05/05 18:44:33;;;;;;;2.33;1.30;;;;;;;18.26;58.28;96722.19;10398211;28;20095;-30
2023/05/05 18:49:34;;;;;;;3.08;1.20;;;;;;;18.25;57.93;96724.75;10411758;28;20103;-30
2023/05/05 18:54:34;;;;;;;1.97;1.23;;;;;;;18.22;58.26;96722.19;10395866;28;20148;-30
2023/05/05 18:59:35;;;;;;;1.77;1.27;;;;;;;18.22;57.94;96722.19;10390003;28;20038;-31
2023/05/05 19:04:36;;;;;;;1.65;1.10;;;;;;;18.21;58.00;96731.50;10402618;28;20040;-30
2023/05/05 19:09:37;;;;;;;2.17;1.40;;;;;;;18.22;59.45;96742.47;10381944;28;20391;-30
2023/05/05 19:14:37;;;;;;;2.47;1.63;;;;;;;18.43;63.97;96743.38;10380653;28;20042;-29
2023/05/05 19:19:37;;;;;;;4.20;1.87;;;;;;;18.48;62.63;96750.97;10397146;28;20034;-30
2023/05/05 19:24:38;;;;;;;4.90;1.63;;;;;;;18.39;61.13;96745.91;10404940;28;20858;-31
2023/05/05 19:29:39;;;;;;;2.93;1.50;;;;;;;18.28;58.75;96758.56;10418841;28;20296;-32
2023/05/05 19:34:41;;;;;;;4.65;1.33;;;;;;;18.25;58.28;96757.69;10418643;28;20091;-30
2023/05/05 19:39:43;;;;;;;1.83;0.77;;;;;;;18.22;58.51;96765.28;10412931;28;20025;-31
2023/05/05 19:44:43;;;;;;;1.88;1.33;;;;;;;18.19;57.51;96768.69;10415556;28;20041;-30
2023/05/05 19:49:43;;;;;;;1.92;0.88;;;;;;;18.19;58.03;96763.59;10416544;28;20041;-30
2023/05/05 19:54:44;;;;;;;5.37;1.30;;;;;;;18.17;59.70;96772.88;10408156;28;20041;-28
2023/05/05 19:59:46;;;;;;;1.67;1.35;;;;;;;18.17;58.02;96774.56;10395057;28;20083;-30
2023/05/05 20:04:46;;;;;;;1.67;1.13;;;;;;;18.17;57.87;96779.66;10395614;28;20044;-30
2023/05/05 20:09:47;;;;;;;4.25;1.65;;;;;;;18.28;60.35;96773.75;10378034;28;20040;-29
2023/05/05 20:14:47;;;;;;;3.13;1.53;;;;;;;18.41;64.38;96780.56;10384849;28;20038;-31
2023/05/05 20:19:48;;;;;;;1.80;1.27;;;;;;;18.46;61.35;96788.16;10395608;28;20486;-30
2023/05/05 20:24:48;;;;;;;9.68;1.38;;;;;;;18.33;59.64;96791.53;10402052;28;20048;-30
2023/05/05 20:29:48;;;;;;;3.30;1.07;;;;;;;18.25;58.28;96783.03;10387445;28;20037;-30
2023/05/05 20:34:49;;;;;;;2.10;1.37;;;;;;;18.22;57.99;96783.00;10380563;28;20088;-29
2023/05/05 20:39:49;;;;;;;5.43;1.83;;;;;;;18.23;60.05;96795.69;10373783;28;20494;-30
2023/05/05 20:44:51;;;;;;;5.88;1.50;;;;;;;18.19;57.88;96793.16;10378250;28;20064;-30
2023/05/05 20:49:51;;;;;;;2.20;1.10;;;;;;;18.17;57.67;96787.25;10378987;28;20486;-30
2023/05/05 20:54:51;;;;;;;0.80;0.80;;;;;;;18.17;57.75;96784.72;10371443;28;20300;-30
2023/05/05 20:59:52;;;;;;;3.50;1.00;;;;;;;18.15;57.70;96792.31;10372092;28;20033;-29
2023/05/05 21:04:52;;;;;;;1.33;0.90;;;;;;;18.17;58.61;96804.97;10376632;28;20053;-29
2023/05/05 21:09:52;;;;;;;2.53;1.63;;;;;;;18.37;64.63;96795.75;10407668;28;20041;-30
2023/05/05 21:14:55;;;;;;;3.33;1.70;;;;;;;18.45;65.36;96796.59;10380074;28;20060;-30
2023/05/05 21:19:56;;;;;;;4.75;1.60;;;;;;;18.39;60.95;96792.38;10385053;28;20099;-30
2023/05/05 21:25:16;;;;;;;1.55;1.08;;;;;;;18.29;60.77;96785.63;10373425;28;20119;-30
2023/05/05 21:30:17;;;;;;;1.27;1.10;;;;;;;18.22;58.35;96794.00;10363127;28;20093;-30
2023/05/05 21:35:17;;;;;;;0.93;0.70;;;;;;;18.19;58.04;96794.03;10398504;28;20116;-30
2023/05/05 21:40:18;;;;;;;2.30;1.17;;;;;;;18.18;58.31;96791.47;10396523;28;20028;-29
2023/05/05 21:45:18;;;;;;;3.77;1.30;;;;;;;18.20;58.56;96784.72;10388027;28;20030;-30
2023/05/05 21:50:19;;;;;;;1.15;0.98;;;;;;;18.15;58.09;96768.66;10381594;28;20044;-30
2023/05/05 21:55:19;;;;;;;2.03;0.88;;;;;;;18.15;57.99;96769.50;10373907;28;20041;-30
2023/05/05 22:00:20;;;;;;;1.20;0.90;;;;;;;18.13;57.68;96767.78;10385924;28;20530;-30
2023/05/05 22:05:20;;;;;;;2.85;1.52;;;;;;;18.21;60.75;96773.72;10397520;28;20052;-30
2023/05/05 22:10:21;;;;;;;2.63;1.60;;;;;;;18.38;65.07;96775.50;10407026;28;20501;-31
2023/05/05 22:15:21;;;;;;;2.03;1.58;;;;;;;18.43;60.55;96772.97;10381251;28;20040;-29
2023/05/05 22:20:22;;;;;;;1.00;0.80;;;;;;;18.33;60.69;96776.34;10397988;28;20026;-29
2023/05/05 22:25:22;;;;;;;2.90;1.43;;;;;;;18.24;59.82;96771.22;10391902;28;20497;-29
2023/05/05 22:30:23;;;;;;;1.33;0.80;;;;;;;18.19;58.84;96757.69;10396341;28;20296;-30
2023/05/05 22:35:23;;;;;;;1.60;1.03;;;;;;;18.18;58.18;96768.66;10379496;28;20292;-29
2023/05/05 22:40:23;;;;;;;1.10;1.00;;;;;;;18.15;57.90;96771.19;10408501;28;20028;-30
2023/05/05 22:45:24;;;;;;;1.63;0.90;;;;;;;18.13;57.67;96768.66;10380872;28;20502;-30
2023/05/05 22:50:25;;;;;;;1.75;0.80;;;;;;;18.09;57.64;96766.94;10406247;28;20136;-29
2023/05/05 22:55:26;;;;;;;1.20;1.00;;;;;;;18.11;57.40;96766.94;10394308;28;20116;-30
2023/05/05 23:00:27;;;;;;;2.67;0.77;;;;;;;18.10;57.55;96767.81;10373971;28;20026;-30
2023/05/05 23:05:27;;;;;;;2.70;1.20;;;;;;;18.26;60.14;96769.53;10384436;28;20044;-30
2023/05/05 23:10:28;;;;;;;2.63;1.50;;;;;;;18.38;64.52;96764.50;10400606;28;20045;-31
2023/05/05 23:15:28;;;;;;;1.65;0.93;;;;;;;18.40;60.18;96756.06;10380952;28;20045;-30
2023/05/05 23:20:29;;;;;;;2.00;1.00;;;;;;;18.31;60.57;96762.78;10394363;28;20401;-30
2023/05/05 23:25:29;;;;;;;1.35;1.00;;;;;;;18.22;59.83;96768.66;10381010;28;20548;-29